sensor_id;sensor_type;location;lat;lon;timestamp;pressure;altitude;pressure_sealevel;temperature;humidity
51297;BME280;37380;45.186;9.792;2022-10-01T00:00:46;100978.00;;;14.12;100.00
51297;BME280;37380;45.186;9.792;2022-10-01T00:03:21;100964.78;;;14.09;100.00
51297;BME280;37380;45.186;9.792;2022-10-01T00:06:17;100988.50;;;14.12;100.00
51297;BME280;37380;45.186;9.792;2022-10-01T00:08:47;100975.00;;;13.97;100.00
51297;BME280;37380;45.186;9.792;2022-10-01T00:11:23;100949.91;;;13.73;100.00
51297;BME280;37380;45.186;9.792;2022-10-01T00:13:51;100916.63;;;13.41;100.00
51297;BME280;37380;45.186;9.792;2022-10-01T00:16:22;100994.94;;;13.89;100.00
51297;BME280;37380;45.186;9.792;2022-10-01T00:18:56;100974.50;;;13.77;100.00
51297;BME280;37380;45.186;9.792;2022-10-01T00:21:50;100990.97;;;13.71;100.00
51297;BME280;37380;45.186;9.792;2022-10-01T00:24:24;100999.06;;;13.79;100.00
51297;BME280;37380;45.186;9.792;2022-10-01T00:27:26;100997.31;;;13.79;100.00
51297;BME280;37380;45.186;9.792;2022-10-01T00:30:21;100922.97;;;13.47;100.00
51297;BME280;37380;45.186;9.792;2022-10-01T00:32:52;101032.47;;;14.19;100.00
51297;BME280;37380;45.186;9.792;2022-10-01T00:35:19;100939.78;;;13.55;100.00
51297;BME280;37380;45.186;9.792;2022-10-01T00:37:48;100962.94;;;13.70;100.00
51297;BME280;37380;45.186;9.792;2022-10-01T00:40:19;100937.66;;;13.74;100.00
51297;BME280;37380;45.186;9.792;2022-10-01T00:42:47;101000.50;;;14.01;100.00
51297;BME280;37380;45.186;9.792;2022-10-01T00:45:14;101001.66;;;14.12;100.00
51297;BME280;37380;45.186;9.792;2022-10-01T00:47:55;101029.31;;;14.33;100.00
51297;BME280;37380;45.186;9.792;2022-10-01T00:50:31;100996.91;;;14.34;100.00
51297;BME280;37380;45.186;9.792;2022-10-01T00:53:04;101031.94;;;14.33;100.00
51297;BME280;37380;45.186;9.792;2022-10-01T00:55:41;100991.50;;;13.91;100.00
51297;BME280;37380;45.186;9.792;2022-10-01T00:58:44;101041.06;;;14.12;100.00
51297;BME280;37380;45.186;9.792;2022-10-01T01:01:47;100982.88;;;13.97;100.00
51297;BME280;37380;45.186;9.792;2022-10-01T01:04:48;101050.22;;;14.28;100.00
51297;BME280;37380;45.186;9.792;2022-10-01T01:07:21;101018.06;;;14.03;100.00
51297;BME280;37380;45.186;9.792;2022-10-01T01:09:49;100955.97;;;13.72;100.00
51297;BME280;37380;45.186;9.792;2022-10-01T01:18:03;101009.47;;;14.09;100.00
51297;BME280;37380;45.186;9.792;2022-10-01T01:30:21;101037.91;;;13.91;100.00
51297;BME280;37380;45.186;9.792;2022-10-01T01:32:56;100974.81;;;13.56;100.00
51297;BME280;37380;45.186;9.792;2022-10-01T01:35:59;100977.38;;;13.53;100.00
51297;BME280;37380;45.186;9.792;2022-10-01T01:38:34;101037.03;;;13.92;100.00
51297;BME280;37380;45.186;9.792;2022-10-01T01:41:04;101012.31;;;13.52;100.00
51297;BME280;37380;45.186;9.792;2022-10-01T01:43:36;101032.75;;;13.62;100.00
51297;BME280;37380;45.186;9.792;2022-10-01T01:46:05;101031.63;;;13.54;100.00
51297;BME280;37380;45.186;9.792;2022-10-01T01:48:36;100965.50;;;13.05;100.00
51297;BME280;37380;45.186;9.792;2022-10-01T01:51:12;100977.81;;;13.08;100.00
51297;BME280;37380;45.186;9.792;2022-10-01T01:53:40;100987.47;;;13.09;100.00
51297;BME280;37380;45.186;9.792;2022-10-01T01:56:07;100950.72;;;12.77;100.00
51297;BME280;37380;45.186;9.792;2022-10-01T01:58:40;100989.59;;;12.92;100.00
51297;BME280;37380;45.186;9.792;2022-10-01T02:01:42;101034.38;;;13.27;100.00
51297;BME280;37380;45.186;9.792;2022-10-01T02:04:48;100981.72;;;12.92;100.00
51297;BME280;37380;45.186;9.792;2022-10-01T02:21:22;101031.31;;;13.13;100.00
51297;BME280;37380;45.186;9.792;2022-10-01T02:26:57;101026.31;;;13.21;100.00
51297;BME280;37380;45.186;9.792;2022-10-01T02:29:26;101033.16;;;13.17;100.00
51297;BME280;37380;45.186;9.792;2022-10-01T02:31:55;100988.72;;;12.91;100.00
51297;BME280;37380;45.186;9.792;2022-10-01T02:34:26;101023.03;;;12.99;100.00
51297;BME280;37380;45.186;9.792;2022-10-01T02:37:03;101019.34;;;12.93;100.00
51297;BME280;37380;45.186;9.792;2022-10-01T02:40:00;100999.31;;;12.95;100.00
51297;BME280;37380;45.186;9.792;2022-10-01T02:42:29;101003.28;;;12.82;100.00
51297;BME280;37380;45.186;9.792;2022-10-01T02:44:58;101016.72;;;12.93;100.00
51297;BME280;37380;45.186;9.792;2022-10-01T02:47:46;100956.69;;;12.44;100.00
51297;BME280;37380;45.186;9.792;2022-10-01T02:50:16;100927.47;;;12.32;100.00
51297;BME280;37380;45.186;9.792;2022-10-01T02:52:51;100979.06;;;12.62;100.00
51297;BME280;37380;45.186;9.792;2022-10-01T02:55:32;101005.69;;;12.74;100.00
51297;BME280;37380;45.186;9.792;2022-10-01T02:58:01;100939.44;;;12.24;100.00
51297;BME280;37380;45.186;9.792;2022-10-01T03:00:35;100959.81;;;12.33;100.00
51297;BME280;37380;45.186;9.792;2022-10-01T03:03:36;100975.97;;;12.46;100.00
51297;BME280;37380;45.186;9.792;2022-10-01T03:06:37;101005.41;;;12.38;100.00
51297;BME280;37380;45.186;9.792;2022-10-01T03:09:33;101015.47;;;12.53;100.00
51297;BME280;37380;45.186;9.792;2022-10-01T03:12:02;100975.94;;;12.18;100.00
51297;BME280;37380;45.186;9.792;2022-10-01T03:14:29;101025.06;;;12.52;100.00
51297;BME280;37380;45.186;9.792;2022-10-01T03:16:58;101020.53;;;12.19;100.00
51297;BME280;37380;45.186;9.792;2022-10-01T03:19:31;101018.69;;;12.17;100.00
51297;BME280;37380;45.186;9.792;2022-10-01T03:22:25;101021.13;;;12.11;100.00
51297;BME280;37380;45.186;9.792;2022-10-01T03:24:59;101031.59;;;12.11;100.00
51297;BME280;37380;45.186;9.792;2022-10-01T03:27:57;100849.66;;;11.21;100.00
51297;BME280;37380;45.186;9.792;2022-10-01T03:30:24;100980.69;;;12.03;100.00
51297;BME280;37380;45.186;9.792;2022-10-01T03:32:52;101017.31;;;12.28;100.00
51297;BME280;37380;45.186;9.792;2022-10-01T03:35:19;101034.78;;;12.28;100.00
51297;BME280;37380;45.186;9.792;2022-10-01T03:37:46;101054.41;;;12.40;100.00
51297;BME280;37380;45.186;9.792;2022-10-01T03:40:13;101004.50;;;12.10;100.00
51297;BME280;37380;45.186;9.792;2022-10-01T03:42:40;100989.28;;;11.98;100.00
51297;BME280;37380;45.186;9.792;2022-10-01T03:45:07;100984.03;;;11.98;100.00
51297;BME280;37380;45.186;9.792;2022-10-01T03:47:34;101060.16;;;12.30;100.00
51297;BME280;37380;45.186;9.792;2022-10-01T03:50:08;101053.53;;;12.14;100.00
51297;BME280;37380;45.186;9.792;2022-10-01T03:53:02;101042.97;;;12.13;100.00
51297;BME280;37380;45.186;9.792;2022-10-01T03:55:29;101055.56;;;12.23;100.00
51297;BME280;37380;45.186;9.792;2022-10-01T03:57:57;101019.22;;;12.07;100.00
51297;BME280;37380;45.186;9.792;2022-10-01T04:00:30;101015.78;;;12.08;100.00
51297;BME280;37380;45.186;9.792;2022-10-01T04:03:31;101023.84;;;12.14;100.00
51297;BME280;37380;45.186;9.792;2022-10-01T04:06:32;101028.03;;;12.09;100.00
51297;BME280;37380;45.186;9.792;2022-10-01T04:09:33;101047.31;;;12.11;100.00
51297;BME280;37380;45.186;9.792;2022-10-01T04:12:27;101041.88;;;12.05;100.00
51297;BME280;37380;45.186;9.792;2022-10-01T04:14:54;101025.94;;;11.98;100.00
51297;BME280;37380;45.186;9.792;2022-10-01T04:17:21;101004.84;;;11.95;100.00
51297;BME280;37380;45.186;9.792;2022-10-01T04:19:54;101046.03;;;12.25;100.00
51297;BME280;37380;45.186;9.792;2022-10-01T04:22:55;101030.53;;;12.06;100.00
51297;BME280;37380;45.186;9.792;2022-10-01T04:26:02;101044.59;;;12.08;100.00
51297;BME280;37380;45.186;9.792;2022-10-01T04:28:56;101062.28;;;12.15;100.00
51297;BME280;37380;45.186;9.792;2022-10-01T04:31:23;101038.91;;;11.95;100.00
51297;BME280;37380;45.186;9.792;2022-10-01T04:33:54;100941.25;;;11.47;100.00
51297;BME280;37380;45.186;9.792;2022-10-01T04:36:23;100990.41;;;11.81;100.00
51297;BME280;37380;45.186;9.792;2022-10-01T04:38:54;101070.53;;;12.27;100.00
51297;BME280;37380;45.186;9.792;2022-10-01T04:41:28;100964.81;;;11.72;100.00
51297;BME280;37380;45.186;9.792;2022-10-01T04:43:57;101046.66;;;12.18;100.00
51297;BME280;37380;45.186;9.792;2022-10-01T04:46:27;101053.06;;;12.26;100.00
51297;BME280;37380;45.186;9.792;2022-10-01T04:49:01;101016.19;;;12.20;100.00
51297;BME280;37380;45.186;9.792;2022-10-01T04:51:48;101059.81;;;12.45;100.00
51297;BME280;37380;45.186;9.792;2022-10-01T04:54:15;101012.72;;;12.21;100.00
51297;BME280;37380;45.186;9.792;2022-10-01T04:56:42;100965.72;;;11.98;100.00
51297;BME280;37380;45.186;9.792;2022-10-01T04:59:09;101024.69;;;12.40;100.00
51297;BME280;37380;45.186;9.792;2022-10-01T05:01:42;101031.78;;;12.44;100.00
51297;BME280;37380;45.186;9.792;2022-10-01T05:04:43;101044.47;;;12.57;100.00
51297;BME280;37380;45.186;9.792;2022-10-01T05:07:38;100977.81;;;12.22;100.00
51297;BME280;37380;45.186;9.792;2022-10-01T05:10:14;101068.97;;;12.59;100.00
51297;BME280;37380;45.186;9.792;2022-10-01T05:12:41;101046.63;;;12.43;100.00
51297;BME280;37380;45.186;9.792;2022-10-01T05:15:08;101005.00;;;12.26;100.00
51297;BME280;37380;45.186;9.792;2022-10-01T05:17:35;101030.56;;;12.60;100.00
51297;BME280;37380;45.186;9.792;2022-10-01T05:20:18;101027.63;;;12.51;100.00
51297;BME280;37380;45.186;9.792;2022-10-01T05:23:19;101056.41;;;12.76;100.00
51297;BME280;37380;45.186;9.792;2022-10-01T05:26:13;101063.66;;;12.83;100.00
51297;BME280;37380;45.186;9.792;2022-10-01T05:28:40;101101.63;;;12.96;100.00
51297;BME280;37380;45.186;9.792;2022-10-01T05:31:11;101105.16;;;13.25;100.00
51297;BME280;37380;45.186;9.792;2022-10-01T05:33:39;101090.00;;;13.17;100.00
51297;BME280;37380;45.186;9.792;2022-10-01T05:36:06;101028.00;;;12.90;100.00
51297;BME280;37380;45.186;9.792;2022-10-01T05:38:33;101047.94;;;13.13;100.00
51297;BME280;37380;45.186;9.792;2022-10-01T05:41:03;101018.03;;;13.08;100.00
51297;BME280;37380;45.186;9.792;2022-10-01T05:43:31;101028.34;;;13.01;100.00
51297;BME280;37380;45.186;9.792;2022-10-01T05:46:02;101045.94;;;13.05;100.00
51297;BME280;37380;45.186;9.792;2022-10-01T05:48:31;101027.47;;;13.02;100.00
51297;BME280;37380;45.186;9.792;2022-10-01T05:51:03;101093.66;;;13.50;100.00
51297;BME280;37380;45.186;9.792;2022-10-01T05:53:34;101089.97;;;13.44;100.00
51297;BME280;37380;45.186;9.792;2022-10-01T05:56:05;101062.69;;;13.10;100.00
51297;BME280;37380;45.186;9.792;2022-10-01T05:58:39;101094.06;;;13.34;100.00
51297;BME280;37380;45.186;9.792;2022-10-01T06:01:40;101119.75;;;13.44;100.00
51297;BME280;37380;45.186;9.792;2022-10-01T06:04:41;101084.00;;;13.79;100.00
51297;BME280;37380;45.186;9.792;2022-10-01T06:07:42;101092.63;;;14.77;100.00
51297;BME280;37380;45.186;9.792;2022-10-01T06:10:43;101122.91;;;15.35;100.00
51297;BME280;37380;45.186;9.792;2022-10-01T06:13:37;101132.88;;;15.50;100.00
51297;BME280;37380;45.186;9.792;2022-10-01T06:16:05;101043.34;;;15.50;100.00
51297;BME280;37380;45.186;9.792;2022-10-01T06:18:40;101125.78;;;16.32;100.00
51297;BME280;37380;45.186;9.792;2022-10-01T06:21:34;101104.72;;;15.47;100.00
51297;BME280;37380;45.186;9.792;2022-10-01T06:24:08;101120.66;;;15.94;100.00
51297;BME280;37380;45.186;9.792;2022-10-01T06:27:02;101104.41;;;15.71;100.00
51297;BME280;37380;45.186;9.792;2022-10-01T06:29:29;101089.78;;;15.87;100.00
51297;BME280;37380;45.186;9.792;2022-10-01T06:31:56;101145.16;;;15.49;100.00
51297;BME280;37380;45.186;9.792;2022-10-01T06:34:23;101094.88;;;15.78;100.00
51297;BME280;37380;45.186;9.792;2022-10-01T06:36:58;101118.41;;;16.66;100.00
51297;BME280;37380;45.186;9.792;2022-10-01T06:39:52;101059.41;;;16.59;100.00
51297;BME280;37380;45.186;9.792;2022-10-01T06:42:26;101124.53;;;17.18;100.00
51297;BME280;37380;45.186;9.792;2022-10-01T06:45:20;101130.94;;;17.34;100.00
51297;BME280;37380;45.186;9.792;2022-10-01T06:47:52;101147.50;;;17.86;100.00
51297;BME280;37380;45.186;9.792;2022-10-01T06:50:21;101106.28;;;16.75;100.00
51297;BME280;37380;45.186;9.792;2022-10-01T06:52:49;101158.69;;;17.71;100.00
51297;BME280;37380;45.186;9.792;2022-10-01T06:55:24;101114.28;;;17.41;100.00
51297;BME280;37380;45.186;9.792;2022-10-01T06:57:56;101098.44;;;16.28;100.00
51297;BME280;37380;45.186;9.792;2022-10-01T07:00:34;101138.53;;;17.11;100.00
51297;BME280;37380;45.186;9.792;2022-10-01T07:03:29;101133.69;;;17.45;100.00
51297;BME280;37380;45.186;9.792;2022-10-01T07:06:30;101084.22;;;17.31;100.00
51297;BME280;37380;45.186;9.792;2022-10-01T07:09:31;101161.84;;;18.11;100.00
51297;BME280;37380;45.186;9.792;2022-10-01T07:12:28;101154.66;;;17.96;100.00
51297;BME280;37380;45.186;9.792;2022-10-01T07:14:55;101105.63;;;17.53;100.00
51297;BME280;37380;45.186;9.792;2022-10-01T07:17:23;101091.56;;;17.57;100.00
51297;BME280;37380;45.186;9.792;2022-10-01T07:19:50;101157.34;;;18.01;100.00
51297;BME280;37380;45.186;9.792;2022-10-01T07:22:17;101178.13;;;18.49;100.00
51297;BME280;37380;45.186;9.792;2022-10-01T07:24:51;101162.50;;;17.92;100.00
51297;BME280;37380;45.186;9.792;2022-10-01T07:27:45;101155.81;;;18.21;100.00
51297;BME280;37380;45.186;9.792;2022-10-01T07:30:12;101133.00;;;18.32;100.00
51297;BME280;37380;45.186;9.792;2022-10-01T07:32:42;101171.84;;;18.38;100.00
51297;BME280;37380;45.186;9.792;2022-10-01T07:35:10;101155.53;;;18.84;100.00
51297;BME280;37380;45.186;9.792;2022-10-01T07:37:37;101108.38;;;18.41;100.00
51297;BME280;37380;45.186;9.792;2022-10-01T07:40:11;101187.22;;;17.92;100.00
51297;BME280;37380;45.186;9.792;2022-10-01T07:43:05;101145.66;;;17.18;100.00
51297;BME280;37380;45.186;9.792;2022-10-01T07:45:32;101170.38;;;17.23;100.00
51297;BME280;37380;45.186;9.792;2022-10-01T07:48:00;101179.25;;;17.89;100.00
51297;BME280;37380;45.186;9.792;2022-10-01T07:50:29;101101.94;;;18.15;100.00
51297;BME280;37380;45.186;9.792;2022-10-01T07:52:57;101180.81;;;18.54;100.00
51297;BME280;37380;45.186;9.792;2022-10-01T07:55:26;101205.94;;;18.12;100.00
51297;BME280;37380;45.186;9.792;2022-10-01T07:57:56;101198.06;;;17.50;100.00
51297;BME280;37380;45.186;9.792;2022-10-01T08:00:31;101183.38;;;17.70;100.00
51297;BME280;37380;45.186;9.792;2022-10-01T08:03:26;101127.50;;;17.39;100.00
51297;BME280;37380;45.186;9.792;2022-10-01T08:06:16;101133.03;;;16.98;100.00
51297;BME280;37380;45.186;9.792;2022-10-01T08:08:50;101185.66;;;17.42;100.00
51297;BME280;37380;45.186;9.792;2022-10-01T08:11:17;101207.75;;;16.93;100.00
51297;BME280;37380;45.186;9.792;2022-10-01T08:13:44;101171.97;;;16.13;100.00
51297;BME280;37380;45.186;9.792;2022-10-01T08:16:20;101197.63;;;16.69;100.00
51297;BME280;37380;45.186;9.792;2022-10-01T08:19:22;101194.53;;;16.91;100.00
51297;BME280;37380;45.186;9.792;2022-10-01T08:22:16;101201.94;;;17.14;100.00
51297;BME280;37380;45.186;9.792;2022-10-01T08:24:50;101201.88;;;17.11;100.00
51297;BME280;37380;45.186;9.792;2022-10-01T08:27:44;101209.28;;;16.80;100.00
51297;BME280;37380;45.186;9.792;2022-10-01T08:30:11;101096.25;;;16.04;100.00
51297;BME280;37380;45.186;9.792;2022-10-01T08:32:38;101203.06;;;16.77;100.00
51297;BME280;37380;45.186;9.792;2022-10-01T08:35:05;101191.97;;;16.97;100.00
51297;BME280;37380;45.186;9.792;2022-10-01T08:37:33;101149.88;;;16.53;100.00
51297;BME280;37380;45.186;9.792;2022-10-01T08:40:00;101215.69;;;16.94;100.00
51297;BME280;37380;45.186;9.792;2022-10-01T08:45:41;101206.59;;;17.32;100.00
51297;BME280;37380;45.186;9.792;2022-10-01T08:51:59;101203.41;;;17.54;100.00
51297;BME280;37380;45.186;9.792;2022-10-01T08:54:45;101211.56;;;17.12;100.00
51297;BME280;37380;45.186;9.792;2022-10-01T08:57:21;101212.59;;;17.20;100.00
51297;BME280;37380;45.186;9.792;2022-10-01T08:59:58;101188.13;;;17.33;100.00
51297;BME280;37380;45.186;9.792;2022-10-01T09:02:41;101210.09;;;17.29;100.00
51297;BME280;37380;45.186;9.792;2022-10-01T09:11:37;101190.91;;;16.85;100.00
51297;BME280;37380;45.186;9.792;2022-10-01T09:14:35;101218.41;;;17.57;100.00
51297;BME280;37380;45.186;9.792;2022-10-01T09:20:44;101215.53;;;17.41;100.00
51297;BME280;37380;45.186;9.792;2022-10-01T09:24:05;101215.94;;;17.08;100.00
51297;BME280;37380;45.186;9.792;2022-10-01T09:27:18;101204.75;;;17.26;100.00
51297;BME280;37380;45.186;9.792;2022-10-01T09:30:19;101204.03;;;17.99;100.00
51297;BME280;37380;45.186;9.792;2022-10-01T09:35:49;101213.56;;;17.87;100.00
51297;BME280;37380;45.186;9.792;2022-10-01T09:40:54;101185.09;;;17.67;100.00
51297;BME280;37380;45.186;9.792;2022-10-01T09:43:24;101186.28;;;17.90;100.00
51297;BME280;37380;45.186;9.792;2022-10-01T09:45:52;101167.16;;;18.09;100.00
51297;BME280;37380;45.186;9.792;2022-10-01T09:48:32;101173.59;;;18.38;100.00
51297;BME280;37380;45.186;9.792;2022-10-01T09:51:06;101108.03;;;19.07;100.00
51297;BME280;37380;45.186;9.792;2022-10-01T09:53:38;101179.22;;;20.01;100.00
51297;BME280;37380;45.186;9.792;2022-10-01T09:56:14;101161.16;;;19.31;100.00
51297;BME280;37380;45.186;9.792;2022-10-01T09:58:47;101177.81;;;19.13;100.00
51297;BME280;37380;45.186;9.792;2022-10-01T10:01:29;101136.44;;;19.34;100.00
51297;BME280;37380;45.186;9.792;2022-10-01T10:04:37;101122.19;;;19.13;100.00
51297;BME280;37380;45.186;9.792;2022-10-01T10:07:32;101165.78;;;19.66;100.00
51297;BME280;37380;45.186;9.792;2022-10-01T10:10:09;101160.38;;;19.46;100.00
51297;BME280;37380;45.186;9.792;2022-10-01T10:12:39;101150.47;;;18.15;100.00
51297;BME280;37380;45.186;9.792;2022-10-01T10:15:08;101159.31;;;18.19;100.00
51297;BME280;37380;45.186;9.792;2022-10-01T10:17:43;101122.47;;;18.39;100.00
51297;BME280;37380;45.186;9.792;2022-10-01T10:20:27;101174.09;;;18.90;100.00
51297;BME280;37380;45.186;9.792;2022-10-01T10:23:23;101141.56;;;19.05;100.00
51297;BME280;37380;45.186;9.792;2022-10-01T10:26:33;101168.66;;;20.20;100.00
51297;BME280;37380;45.186;9.792;2022-10-01T10:29:33;101158.59;;;19.45;100.00
51297;BME280;37380;45.186;9.792;2022-10-01T10:32:13;101114.56;;;19.72;100.00
51297;BME280;37380;45.186;9.792;2022-10-01T10:34:43;101143.78;;;19.88;100.00
51297;BME280;37380;45.186;9.792;2022-10-01T10:37:26;101000.53;;;19.58;100.00
51297;BME280;37380;45.186;9.792;2022-10-01T10:40:26;101103.16;;;20.06;100.00
51297;BME280;37380;45.186;9.792;2022-10-01T10:42:57;101137.19;;;19.08;100.00
51297;BME280;37380;45.186;9.792;2022-10-01T10:45:35;101115.94;;;19.05;100.00
51297;BME280;37380;45.186;9.792;2022-10-01T10:48:28;101134.91;;;19.80;100.00
51297;BME280;37380;45.186;9.792;2022-10-01T10:50:59;101135.00;;;20.02;100.00
51297;BME280;37380;45.186;9.792;2022-10-01T10:53:29;101140.72;;;19.10;100.00
51297;BME280;37380;45.186;9.792;2022-10-01T10:56:06;101116.38;;;19.82;100.00
51297;BME280;37380;45.186;9.792;2022-10-01T10:58:41;101090.84;;;20.42;100.00
51297;BME280;37380;45.186;9.792;2022-10-01T11:01:25;101125.03;;;19.47;100.00
51297;BME280;37380;45.186;9.792;2022-10-01T11:04:41;101097.31;;;18.85;100.00
51297;BME280;37380;45.186;9.792;2022-10-01T11:07:20;101133.72;;;19.21;100.00
51297;BME280;37380;45.186;9.792;2022-10-01T11:15:56;101153.28;;;19.42;100.00
51297;BME280;37380;45.186;9.792;2022-10-01T11:32:47;101118.13;;;19.77;100.00
51297;BME280;37380;45.186;9.792;2022-10-01T11:38:40;101090.66;;;19.64;100.00
51297;BME280;37380;45.186;9.792;2022-10-01T11:41:49;101134.22;;;20.53;98.80
51297;BME280;37380;45.186;9.792;2022-10-01T11:44:55;101131.50;;;20.07;97.88
51297;BME280;37380;45.186;9.792;2022-10-01T11:48:03;101107.53;;;19.89;98.29
51297;BME280;37380;45.186;9.792;2022-10-01T11:50:40;101094.19;;;19.61;100.00
51297;BME280;37380;45.186;9.792;2022-10-01T11:53:18;101119.16;;;20.40;98.07
51297;BME280;37380;45.186;9.792;2022-10-01T11:55:56;101092.50;;;19.86;99.53
51297;BME280;37380;45.186;9.792;2022-10-01T12:01:30;101089.91;;;21.08;94.00
51297;BME280;37380;45.186;9.792;2022-10-01T12:04:48;101089.97;;;20.40;94.05
51297;BME280;37380;45.186;9.792;2022-10-01T12:10:55;101107.44;;;19.61;98.28
51297;BME280;37380;45.186;9.792;2022-10-01T12:13:33;101082.66;;;19.50;99.31
51297;BME280;37380;45.186;9.792;2022-10-01T12:16:23;101065.09;;;19.83;100.00
51297;BME280;37380;45.186;9.792;2022-10-01T12:19:25;101072.19;;;19.85;97.13
51297;BME280;37380;45.186;9.792;2022-10-01T12:22:13;101086.31;;;19.86;97.61
51297;BME280;37380;45.186;9.792;2022-10-01T12:24:49;101055.47;;;20.22;100.00
51297;BME280;37380;45.186;9.792;2022-10-01T12:28:08;101028.84;;;19.74;96.74
51297;BME280;37380;45.186;9.792;2022-10-01T12:31:15;101064.28;;;20.08;95.64
51297;BME280;37380;45.186;9.792;2022-10-01T12:48:09;101060.69;;;19.79;94.81
51297;BME280;37380;45.186;9.792;2022-10-01T12:57:43;101033.22;;;19.64;91.77
51297;BME280;37380;45.186;9.792;2022-10-01T13:00:25;101007.66;;;19.66;93.59
51297;BME280;37380;45.186;9.792;2022-10-01T13:15:04;100943.13;;;19.74;92.05
51297;BME280;37380;45.186;9.792;2022-10-01T13:17:47;100970.56;;;20.11;89.83
51297;BME280;37380;45.186;9.792;2022-10-01T13:20:42;100969.69;;;20.07;89.70
51297;BME280;37380;45.186;9.792;2022-10-01T13:32:02;100956.41;;;20.17;89.42
51297;BME280;37380;45.186;9.792;2022-10-01T13:34:37;100984.66;;;20.59;97.30
51297;BME280;37380;45.186;9.792;2022-10-01T13:39:59;100922.81;;;20.14;86.70
51297;BME280;37380;45.186;9.792;2022-10-01T13:42:29;100976.66;;;20.82;89.58
51297;BME280;37380;45.186;9.792;2022-10-01T13:44:59;100988.16;;;20.84;86.18
51297;BME280;37380;45.186;9.792;2022-10-01T13:47:29;100929.00;;;20.11;84.80
51297;BME280;37380;45.186;9.792;2022-10-01T13:50:06;100929.81;;;20.41;86.19
51297;BME280;37380;45.186;9.792;2022-10-01T13:52:50;100960.81;;;20.21;89.94
51297;BME280;37380;45.186;9.792;2022-10-01T13:55:45;100963.44;;;20.30;90.13
51297;BME280;37380;45.186;9.792;2022-10-01T13:58:48;100990.88;;;20.27;89.21
51297;BME280;37380;45.186;9.792;2022-10-01T14:01:42;100973.19;;;20.29;88.90
51297;BME280;37380;45.186;9.792;2022-10-01T14:07:19;100992.59;;;20.79;89.28
51297;BME280;37380;45.186;9.792;2022-10-01T14:09:58;100986.38;;;20.85;87.52
51297;BME280;37380;45.186;9.792;2022-10-01T14:13:01;100930.66;;;20.77;82.81
51297;BME280;37380;45.186;9.792;2022-10-01T14:16:15;100981.00;;;21.05;83.48
51297;BME280;37380;45.186;9.792;2022-10-01T14:18:43;100988.91;;;21.17;83.27
51297;BME280;37380;45.186;9.792;2022-10-01T14:21:40;100990.75;;;21.02;82.86
51297;BME280;37380;45.186;9.792;2022-10-01T14:36:33;100975.78;;;20.78;82.89
51297;BME280;37380;45.186;9.792;2022-10-01T14:39:34;100972.25;;;20.78;83.16
51297;BME280;37380;45.186;9.792;2022-10-01T14:42:28;100916.50;;;20.72;84.56
51297;BME280;37380;45.186;9.792;2022-10-01T14:44:55;100953.56;;;20.96;83.45
51297;BME280;37380;45.186;9.792;2022-10-01T14:47:24;100955.38;;;20.97;82.82
51297;BME280;37380;45.186;9.792;2022-10-01T14:49:53;100898.84;;;20.58;82.44
51297;BME280;37380;45.186;9.792;2022-10-01T14:52:28;100948.28;;;20.96;83.56
51297;BME280;37380;45.186;9.792;2022-10-01T14:55:24;100931.56;;;20.71;82.39
51297;BME280;37380;45.186;9.792;2022-10-01T14:57:54;100948.34;;;20.81;83.55
51297;BME280;37380;45.186;9.792;2022-10-01T15:00:28;100952.78;;;20.77;83.27
51297;BME280;37380;45.186;9.792;2022-10-01T15:03:13;100920.94;;;20.67;83.39
51297;BME280;37380;45.186;9.792;2022-10-01T15:05:45;100963.31;;;20.99;83.27
51297;BME280;37380;45.186;9.792;2022-10-01T15:10:52;100951.81;;;20.98;84.34
51297;BME280;37380;45.186;9.792;2022-10-01T15:13:31;100925.34;;;20.80;83.96
51297;BME280;37380;45.186;9.792;2022-10-01T15:16:34;100929.78;;;20.72;84.21
51297;BME280;37380;45.186;9.792;2022-10-01T15:19:29;100915.59;;;20.76;85.06
51297;BME280;37380;45.186;9.792;2022-10-01T15:21:58;100944.75;;;20.97;85.05
51297;BME280;37380;45.186;9.792;2022-10-01T15:24:39;100923.63;;;20.61;85.03
51297;BME280;37380;45.186;9.792;2022-10-01T15:27:41;100911.25;;;20.60;85.31
51297;BME280;37380;45.186;9.792;2022-10-01T15:30:43;100919.19;;;20.50;84.53
51297;BME280;37380;45.186;9.792;2022-10-01T15:33:43;100958.13;;;20.67;84.77
51297;BME280;37380;45.186;9.792;2022-10-01T15:36:22;100917.44;;;20.40;84.09
51297;BME280;37380;45.186;9.792;2022-10-01T15:38:49;100955.44;;;20.73;83.63
51297;BME280;37380;45.186;9.792;2022-10-01T15:41:22;100941.31;;;20.66;83.81
51297;BME280;37380;45.186;9.792;2022-10-01T15:44:01;100909.41;;;20.71;85.22
51297;BME280;37380;45.186;9.792;2022-10-01T15:46:29;100956.28;;;20.92;85.39
51297;BME280;37380;45.186;9.792;2022-10-01T15:49:20;100940.38;;;20.73;85.32
51297;BME280;37380;45.186;9.792;2022-10-01T15:51:58;100929.81;;;20.55;86.31
51297;BME280;37380;45.186;9.792;2022-10-01T15:54:45;100958.16;;;20.57;87.64
51297;BME280;37380;45.186;9.792;2022-10-01T15:57:31;100893.59;;;20.29;88.98
51297;BME280;37380;45.186;9.792;2022-10-01T15:59:59;100890.06;;;20.23;87.82
51297;BME280;37380;45.186;9.792;2022-10-01T16:02:29;100948.38;;;20.50;86.51
51297;BME280;37380;45.186;9.792;2022-10-01T16:05:04;100922.75;;;20.42;88.17
51297;BME280;37380;45.186;9.792;2022-10-01T16:07:32;100925.41;;;20.51;90.91
51297;BME280;37380;45.186;9.792;2022-10-01T16:13:35;100950.19;;;20.27;92.77
51297;BME280;37380;45.186;9.792;2022-10-01T16:16:29;100924.56;;;20.09;91.91
51297;BME280;37380;45.186;9.792;2022-10-01T16:21:25;100936.97;;;19.99;93.50